sensor_id;sensor_type;location;lat;lon;timestamp;temperature;humidity
19385;DHT22;9828;54.122;17.974;2024-03-29T00:01:50;9.10;1.00
19385;DHT22;9828;54.122;17.974;2024-03-29T00:07:11;9.10;1.00
19385;DHT22;9828;54.122;17.974;2024-03-29T00:12:32;9.00;1.00
19385;DHT22;9828;54.122;17.974;2024-03-29T00:17:53;8.90;99.90
19385;DHT22;9828;54.122;17.974;2024-03-29T00:23:13;8.90;99.90
19385;DHT22;9828;54.122;17.974;2024-03-29T00:28:33;8.80;99.90
19385;DHT22;9828;54.122;17.974;2024-03-29T00:33:53;8.90;99.90
19385;DHT22;9828;54.122;17.974;2024-03-29T00:39:13;8.80;99.90
19385;DHT22;9828;54.122;17.974;2024-03-29T00:44:33;8.70;99.90
19385;DHT22;9828;54.122;17.974;2024-03-29T00:49:55;8.60;99.90
19385;DHT22;9828;54.122;17.974;2024-03-29T00:55:16;8.60;97.60
19385;DHT22;9828;54.122;17.974;2024-03-29T01:00:37;8.60;99.90
19385;DHT22;9828;54.122;17.974;2024-03-29T01:05:57;8.50;99.90
19385;DHT22;9828;54.122;17.974;2024-03-29T01:11:18;8.40;99.90
19385;DHT22;9828;54.122;17.974;2024-03-29T01:16:38;8.30;99.90
19385;DHT22;9828;54.122;17.974;2024-03-29T01:21:59;8.30;99.90
19385;DHT22;9828;54.122;17.974;2024-03-29T01:27:19;8.30;99.90
19385;DHT22;9828;54.122;17.974;2024-03-29T01:32:39;8.20;99.90
19385;DHT22;9828;54.122;17.974;2024-03-29T01:38:00;8.20;99.90
19385;DHT22;9828;54.122;17.974;2024-03-29T01:43:20;8.10;99.90
19385;DHT22;9828;54.122;17.974;2024-03-29T01:48:40;8.00;99.90
19385;DHT22;9828;54.122;17.974;2024-03-29T01:54:01;7.90;99.90
19385;DHT22;9828;54.122;17.974;2024-03-29T01:59:21;7.90;99.90
19385;DHT22;9828;54.122;17.974;2024-03-29T02:04:41;7.80;99.90
19385;DHT22;9828;54.122;17.974;2024-03-29T02:10:03;7.80;99.90
19385;DHT22;9828;54.122;17.974;2024-03-29T02:15:23;7.70;99.90
19385;DHT22;9828;54.122;17.974;2024-03-29T02:20:43;7.60;99.90
19385;DHT22;9828;54.122;17.974;2024-03-29T02:26:04;7.60;99.90
19385;DHT22;9828;54.122;17.974;2024-03-29T02:31:24;7.60;99.90
19385;DHT22;9828;54.122;17.974;2024-03-29T02:36:44;7.50;99.90
19385;DHT22;9828;54.122;17.974;2024-03-29T02:42:06;7.40;1.00
19385;DHT22;9828;54.122;17.974;2024-03-29T02:47:26;7.30;1.00
19385;DHT22;9828;54.122;17.974;2024-03-29T02:52:46;7.30;1.00
19385;DHT22;9828;54.122;17.974;2024-03-29T02:58:07;7.20;1.00
19385;DHT22;9828;54.122;17.974;2024-03-29T03:03:27;7.20;1.00
19385;DHT22;9828;54.122;17.974;2024-03-29T03:08:48;7.10;1.00
19385;DHT22;9828;54.122;17.974;2024-03-29T03:14:27;7.10;1.00
19385;DHT22;9828;54.122;17.974;2024-03-29T03:19:47;7.10;1.00
19385;DHT22;9828;54.122;17.974;2024-03-29T03:25:07;7.10;1.00
19385;DHT22;9828;54.122;17.974;2024-03-29T03:30:29;7.10;1.00
19385;DHT22;9828;54.122;17.974;2024-03-29T03:35:49;7.10;99.90
19385;DHT22;9828;54.122;17.974;2024-03-29T03:41:09;7.00;99.90
19385;DHT22;9828;54.122;17.974;2024-03-29T03:46:29;7.00;99.90
19385;DHT22;9828;54.122;17.974;2024-03-29T03:51:50;6.90;1.00
19385;DHT22;9828;54.122;17.974;2024-03-29T03:57:11;6.80;1.00
19385;DHT22;9828;54.122;17.974;2024-03-29T04:02:31;6.70;1.00
19385;DHT22;9828;54.122;17.974;2024-03-29T04:07:51;6.70;1.00
19385;DHT22;9828;54.122;17.974;2024-03-29T04:13:11;6.60;1.00
19385;DHT22;9828;54.122;17.974;2024-03-29T04:18:33;6.50;1.00
19385;DHT22;9828;54.122;17.974;2024-03-29T04:23:53;6.50;1.00
19385;DHT22;9828;54.122;17.974;2024-03-29T04:29:13;6.40;1.00
19385;DHT22;9828;54.122;17.974;2024-03-29T04:34:34;6.50;1.00
19385;DHT22;9828;54.122;17.974;2024-03-29T04:39:54;6.40;1.00
19385;DHT22;9828;54.122;17.974;2024-03-29T04:45:15;6.50;1.00
19385;DHT22;9828;54.122;17.974;2024-03-29T04:50:35;6.50;1.00
19385;DHT22;9828;54.122;17.974;2024-03-29T04:55:56;6.50;1.00
19385;DHT22;9828;54.122;17.974;2024-03-29T05:01:18;6.50;1.00
19385;DHT22;9828;54.122;17.974;2024-03-29T05:06:38;6.60;1.00
19385;DHT22;9828;54.122;17.974;2024-03-29T05:11:58;6.50;1.00
19385;DHT22;9828;54.122;17.974;2024-03-29T05:17:18;6.60;1.00
19385;DHT22;9828;54.122;17.974;2024-03-29T05:22:45;6.60;1.00
19385;DHT22;9828;54.122;17.974;2024-03-29T05:28:05;6.70;1.00
19385;DHT22;9828;54.122;17.974;2024-03-29T05:33:27;6.70;1.00
19385;DHT22;9828;54.122;17.974;2024-03-29T05:38:47;6.80;1.00
19385;DHT22;9828;54.122;17.974;2024-03-29T05:44:07;6.80;1.00
19385;DHT22;9828;54.122;17.974;2024-03-29T05:49:27;6.80;1.00
19385;DHT22;9828;54.122;17.974;2024-03-29T05:54:47;6.90;1.00
19385;DHT22;9828;54.122;17.974;2024-03-29T06:00:08;7.00;1.00
19385;DHT22;9828;54.122;17.974;2024-03-29T06:05:31;7.10;99.90
19385;DHT22;9828;54.122;17.974;2024-03-29T06:10:52;7.20;99.90
19385;DHT22;9828;54.122;17.974;2024-03-29T06:16:12;7.20;1.00
19385;DHT22;9828;54.122;17.974;2024-03-29T06:21:51;7.30;99.90
19385;DHT22;9828;54.122;17.974;2024-03-29T06:27:11;7.50;99.90
19385;DHT22;9828;54.122;17.974;2024-03-29T06:32:32;7.70;99.90
19385;DHT22;9828;54.122;17.974;2024-03-29T06:37:52;7.90;99.90
19385;DHT22;9828;54.122;17.974;2024-03-29T06:43:13;8.10;99.90
19385;DHT22;9828;54.122;17.974;2024-03-29T06:48:33;8.30;99.90
19385;DHT22;9828;54.122;17.974;2024-03-29T06:53:53;9.80;1.00
19385;DHT22;9828;54.122;17.974;2024-03-29T06:59:14;11.60;1.00
19385;DHT22;9828;54.122;17.974;2024-03-29T07:04:34;12.80;1.00
19385;DHT22;9828;54.122;17.974;2024-03-29T07:09:54;13.80;1.00
19385;DHT22;9828;54.122;17.974;2024-03-29T07:15:15;14.60;1.00
19385;DHT22;9828;54.122;17.974;2024-03-29T07:20:35;15.20;1.00
19385;DHT22;9828;54.122;17.974;2024-03-29T07:26:03;15.80;1.00
19385;DHT22;9828;54.122;17.974;2024-03-29T07:31:23;16.20;1.00
19385;DHT22;9828;54.122;17.974;2024-03-29T07:36:44;16.60;1.00
19385;DHT22;9828;54.122;17.974;2024-03-29T07:42:04;16.80;1.00
19385;DHT22;9828;54.122;17.974;2024-03-29T07:47:24;17.30;1.00
19385;DHT22;9828;54.122;17.974;2024-03-29T07:52:46;17.60;99.90
19385;DHT22;9828;54.122;17.974;2024-03-29T07:58:06;18.00;99.90
19385;DHT22;9828;54.122;17.974;2024-03-29T08:03:26;18.60;99.90
19385;DHT22;9828;54.122;17.974;2024-03-29T08:08:47;18.90;99.90
19385;DHT22;9828;54.122;17.974;2024-03-29T08:14:07;19.10;99.90
19385;DHT22;9828;54.122;17.974;2024-03-29T08:19:28;19.20;99.90
19385;DHT22;9828;54.122;17.974;2024-03-29T08:39:56;19.90;99.90
19385;DHT22;9828;54.122;17.974;2024-03-29T08:59:55;20.30;99.90
19385;DHT22;9828;54.122;17.974;2024-03-29T09:05:16;20.10;99.90
19385;DHT22;9828;54.122;17.974;2024-03-29T09:10:36;20.00;99.90
19385;DHT22;9828;54.122;17.974;2024-03-29T09:15:57;19.70;99.90
19385;DHT22;9828;54.122;17.974;2024-03-29T09:21:17;20.00;99.90
19385;DHT22;9828;54.122;17.974;2024-03-29T09:26:37;20.20;99.90
19385;DHT22;9828;54.122;17.974;2024-03-29T09:31:59;19.90;99.90
19385;DHT22;9828;54.122;17.974;2024-03-29T09:37:20;19.70;99.90
19385;DHT22;9828;54.122;17.974;2024-03-29T09:42:43;19.70;99.90
19385;DHT22;9828;54.122;17.974;2024-03-29T09:48:04;19.80;99.90
19385;DHT22;9828;54.122;17.974;2024-03-29T09:53:25;19.70;99.90
19385;DHT22;9828;54.122;17.974;2024-03-29T09:58:46;19.70;99.90
19385;DHT22;9828;54.122;17.974;2024-03-29T10:04:06;19.20;99.90
19385;DHT22;9828;54.122;17.974;2024-03-29T10:09:27;19.30;99.90
19385;DHT22;9828;54.122;17.974;2024-03-29T10:14:49;19.10;99.90
19385;DHT22;9828;54.122;17.974;2024-03-29T10:20:12;18.70;99.90
19385;DHT22;9828;54.122;17.974;2024-03-29T10:25:35;18.70;99.90
19385;DHT22;9828;54.122;17.974;2024-03-29T10:30:55;18.70;99.90
19385;DHT22;9828;54.122;17.974;2024-03-29T10:36:17;18.70;99.90
19385;DHT22;9828;54.122;17.974;2024-03-29T10:41:41;18.60;99.90
19385;DHT22;9828;54.122;17.974;2024-03-29T10:47:02;18.50;99.90
19385;DHT22;9828;54.122;17.974;2024-03-29T10:52:24;18.40;99.90
19385;DHT22;9828;54.122;17.974;2024-03-29T10:57:46;18.30;99.90
19385;DHT22;9828;54.122;17.974;2024-03-29T11:08:39;18.40;99.90
19385;DHT22;9828;54.122;17.974;2024-03-29T11:14:11;18.60;99.90
19385;DHT22;9828;54.122;17.974;2024-03-29T11:19:34;19.00;99.90
19385;DHT22;9828;54.122;17.974;2024-03-29T11:24:54;18.70;99.90
19385;DHT22;9828;54.122;17.974;2024-03-29T11:30:18;18.30;99.90
19385;DHT22;9828;54.122;17.974;2024-03-29T11:35:40;18.40;99.90
19385;DHT22;9828;54.122;17.974;2024-03-29T11:46:23;18.70;99.90
19385;DHT22;9828;54.122;17.974;2024-03-29T11:51:44;19.00;99.90
19385;DHT22;9828;54.122;17.974;2024-03-29T11:57:04;19.40;99.90
19385;DHT22;9828;54.122;17.974;2024-03-29T12:02:25;19.20;99.90
19385;DHT22;9828;54.122;17.974;2024-03-29T12:07:46;18.60;99.90
19385;DHT22;9828;54.122;17.974;2024-03-29T12:13:07;18.50;99.90
19385;DHT22;9828;54.122;17.974;2024-03-29T12:18:28;18.50;99.90
19385;DHT22;9828;54.122;17.974;2024-03-29T12:23:48;18.50;99.90
19385;DHT22;9828;54.122;17.974;2024-03-29T12:29:09;19.00;99.90
19385;DHT22;9828;54.122;17.974;2024-03-29T12:34:29;19.70;99.90
19385;DHT22;9828;54.122;17.974;2024-03-29T12:39:50;20.30;99.90
19385;DHT22;9828;54.122;17.974;2024-03-29T12:45:15;20.50;99.90
19385;DHT22;9828;54.122;17.974;2024-03-29T12:50:35;20.30;99.90
19385;DHT22;9828;54.122;17.974;2024-03-29T12:55:55;19.60;99.90
19385;DHT22;9828;54.122;17.974;2024-03-29T13:01:16;19.00;99.90
19385;DHT22;9828;54.122;17.974;2024-03-29T13:06:36;18.90;99.90
19385;DHT22;9828;54.122;17.974;2024-03-29T13:11:58;19.00;99.90
19385;DHT22;9828;54.122;17.974;2024-03-29T13:17:18;19.10;99.90
19385;DHT22;9828;54.122;17.974;2024-03-29T13:22:39;18.80;99.90
19385;DHT22;9828;54.122;17.974;2024-03-29T13:28:02;18.40;99.90
19385;DHT22;9828;54.122;17.974;2024-03-29T13:33:22;18.00;99.90
19385;DHT22;9828;54.122;17.974;2024-03-29T13:38:43;17.80;99.90
19385;DHT22;9828;54.122;17.974;2024-03-29T13:44:03;17.60;99.90
19385;DHT22;9828;54.122;17.974;2024-03-29T13:49:30;17.50;99.90
19385;DHT22;9828;54.122;17.974;2024-03-29T13:54:50;17.60;99.90
19385;DHT22;9828;54.122;17.974;2024-03-29T14:00:11;17.50;99.90
19385;DHT22;9828;54.122;17.974;2024-03-29T14:05:34;17.60;99.90
19385;DHT22;9828;54.122;17.974;2024-03-29T14:10:56;17.50;99.90
19385;DHT22;9828;54.122;17.974;2024-03-29T14:16:16;17.50;99.90
19385;DHT22;9828;54.122;17.974;2024-03-29T14:21:36;17.40;99.90
19385;DHT22;9828;54.122;17.974;2024-03-29T14:26:57;17.10;99.90
19385;DHT22;9828;54.122;17.974;2024-03-29T14:32:17;16.80;99.90
19385;DHT22;9828;54.122;17.974;2024-03-29T14:37:37;16.50;99.90
19385;DHT22;9828;54.122;17.974;2024-03-29T14:42:57;16.40;99.90
19385;DHT22;9828;54.122;17.974;2024-03-29T14:48:18;16.30;99.90
19385;DHT22;9828;54.122;17.974;2024-03-29T14:53:40;16.20;99.90
19385;DHT22;9828;54.122;17.974;2024-03-29T14:59:06;16.00;99.90
19385;DHT22;9828;54.122;17.974;2024-03-29T15:04:29;15.90;99.90
19385;DHT22;9828;54.122;17.974;2024-03-29T15:09:50;15.90;99.90
19385;DHT22;9828;54.122;17.974;2024-03-29T15:15:11;15.80;99.90
19385;DHT22;9828;54.122;17.974;2024-03-29T15:20:34;15.70;99.90
19385;DHT22;9828;54.122;17.974;2024-03-29T15:25:56;15.70;99.90
19385;DHT22;9828;54.122;17.974;2024-03-29T15:31:18;15.70;99.90
19385;DHT22;9828;54.122;17.974;2024-03-29T15:36:42;15.60;99.90
19385;DHT22;9828;54.122;17.974;2024-03-29T15:42:02;15.60;99.90
19385;DHT22;9828;54.122;17.974;2024-03-29T15:47:22;15.60;99.90
19385;DHT22;9828;54.122;17.974;2024-03-29T15:52:42;15.60;99.90
19385;DHT22;9828;54.122;17.974;2024-03-29T15:58:02;15.50;99.90
19385;DHT22;9828;54.122;17.974;2024-03-29T16:03:23;15.40;99.90
19385;DHT22;9828;54.122;17.974;2024-03-29T16:08:43;15.30;99.90
19385;DHT22;9828;54.122;17.974;2024-03-29T16:14:04;15.40;99.90
19385;DHT22;9828;54.122;17.974;2024-03-29T16:19:25;15.20;99.90
19385;DHT22;9828;54.122;17.974;2024-03-29T16:24:45;15.20;99.90
19385;DHT22;9828;54.122;17.974;2024-03-29T16:30:06;15.10;99.90
19385;DHT22;9828;54.122;17.974;2024-03-29T16:35:27;15.10;99.90
19385;DHT22;9828;54.122;17.974;2024-03-29T16:40:47;15.00;99.90
19385;DHT22;9828;54.122;17.974;2024-03-29T16:46:08;14.90;99.90
19385;DHT22;9828;54.122;17.974;2024-03-29T16:51:28;14.80;99.90
19385;DHT22;9828;54.122;17.974;2024-03-29T16:56:48;14.70;99.90
19385;DHT22;9828;54.122;17.974;2024-03-29T17:02:08;14.70;99.90
19385;DHT22;9828;54.122;17.974;2024-03-29T17:07:29;14.60;99.90
19385;DHT22;9828;54.122;17.974;2024-03-29T17:12:49;14.50;99.90
19385;DHT22;9828;54.122;17.974;2024-03-29T17:18:10;14.50;99.90
19385;DHT22;9828;54.122;17.974;2024-03-29T17:23:30;14.40;99.90
19385;DHT22;9828;54.122;17.974;2024-03-29T17:28:50;14.30;99.90
19385;DHT22;9828;54.122;17.974;2024-03-29T17:34:12;14.30;99.90
19385;DHT22;9828;54.122;17.974;2024-03-29T17:39:35;14.20;99.90
19385;DHT22;9828;54.122;17.974;2024-03-29T17:44:55;14.20;99.90
19385;DHT22;9828;54.122;17.974;2024-03-29T17:50:16;14.10;99.90
19385;DHT22;9828;54.122;17.974;2024-03-29T17:55:36;14.00;99.90
19385;DHT22;9828;54.122;17.974;2024-03-29T18:00:57;14.10;99.90
19385;DHT22;9828;54.122;17.974;2024-03-29T18:06:18;14.10;99.90
19385;DHT22;9828;54.122;17.974;2024-03-29T18:11:38;14.00;99.90
19385;DHT22;9828;54.122;17.974;2024-03-29T18:16:58;13.90;99.90
19385;DHT22;9828;54.122;17.974;2024-03-29T18:22:19;13.90;99.90
19385;DHT22;9828;54.122;17.974;2024-03-29T18:27:40;13.80;99.90
19385;DHT22;9828;54.122;17.974;2024-03-29T18:33:00;13.70;99.90
19385;DHT22;9828;54.122;17.974;2024-03-29T18:38:20;13.70;99.90
19385;DHT22;9828;54.122;17.974;2024-03-29T18:43:41;13.70;99.90
19385;DHT22;9828;54.122;17.974;2024-03-29T18:49:01;13.50;99.90
19385;DHT22;9828;54.122;17.974;2024-03-29T18:54:21;13.50;99.90
19385;DHT22;9828;54.122;17.974;2024-03-29T18:59:41;13.50;99.90
19385;DHT22;9828;54.122;17.974;2024-03-29T19:05:02;13.50;99.90
19385;DHT22;9828;54.122;17.974;2024-03-29T19:10:22;13.50;99.90
19385;DHT22;9828;54.122;17.974;2024-03-29T19:15:43;13.50;99.90
19385;DHT22;9828;54.122;17.974;2024-03-29T19:21:04;13.40;99.90
19385;DHT22;9828;54.122;17.974;2024-03-29T19:26:24;13.40;99.90
19385;DHT22;9828;54.122;17.974;2024-03-29T19:31:49;13.30;99.90
19385;DHT22;9828;54.122;17.974;2024-03-29T19:37:09;13.40;99.90
19385;DHT22;9828;54.122;17.974;2024-03-29T19:42:29;13.30;99.90
19385;DHT22;9828;54.122;17.974;2024-03-29T19:47:50;13.30;99.90
19385;DHT22;9828;54.122;17.974;2024-03-29T19:53:19;13.30;99.90
19385;DHT22;9828;54.122;17.974;2024-03-29T19:58:39;13.40;99.90
19385;DHT22;9828;54.122;17.974;2024-03-29T20:04:00;13.30;99.90
19385;DHT22;9828;54.122;17.974;2024-03-29T20:09:20;13.30;99.90
19385;DHT22;9828;54.122;17.974;2024-03-29T20:14:40;13.30;99.90
19385;DHT22;9828;54.122;17.974;2024-03-29T20:20:01;13.30;99.90
19385;DHT22;9828;54.122;17.974;2024-03-29T20:25:23;13.30;99.90
19385;DHT22;9828;54.122;17.974;2024-03-29T20:30:43;13.30;99.90
19385;DHT22;9828;54.122;17.974;2024-03-29T20:36:06;13.30;99.90
19385;DHT22;9828;54.122;17.974;2024-03-29T20:41:26;13.30;99.90
19385;DHT22;9828;54.122;17.974;2024-03-29T20:46:47;13.20;99.90
19385;DHT22;9828;54.122;17.974;2024-03-29T20:52:07;13.30;99.90
19385;DHT22;9828;54.122;17.974;2024-03-29T20:57:28;13.30;99.90
19385;DHT22;9828;54.122;17.974;2024-03-29T21:02:51;13.30;99.90
19385;DHT22;9828;54.122;17.974;2024-03-29T21:08:30;13.30;99.90
19385;DHT22;9828;54.122;17.974;2024-03-29T21:13:51;13.30;99.90
19385;DHT22;9828;54.122;17.974;2024-03-29T21:19:11;13.30;99.90
19385;DHT22;9828;54.122;17.974;2024-03-29T21:24:32;13.30;99.90
19385;DHT22;9828;54.122;17.974;2024-03-29T21:29:52;13.40;99.90
19385;DHT22;9828;54.122;17.974;2024-03-29T21:35:13;13.40;99.90
19385;DHT22;9828;54.122;17.974;2024-03-29T21:40:34;13.40;99.90
19385;DHT22;9828;54.122;17.974;2024-03-29T21:45:54;13.40;99.90
19385;DHT22;9828;54.122;17.974;2024-03-29T21:51:14;13.40;99.90
19385;DHT22;9828;54.122;17.974;2024-03-29T21:56:34;13.50;99.90
19385;DHT22;9828;54.122;17.974;2024-03-29T22:01:54;13.50;99.90
19385;DHT22;9828;54.122;17.974;2024-03-29T22:07:15;13.50;99.90
19385;DHT22;9828;54.122;17.974;2024-03-29T22:12:35;13.40;99.90
19385;DHT22;9828;54.122;17.974;2024-03-29T22:17:55;13.40;99.90
19385;DHT22;9828;54.122;17.974;2024-03-29T22:23:15;13.40;99.90
19385;DHT22;9828;54.122;17.974;2024-03-29T22:28:36;13.30;99.90
19385;DHT22;9828;54.122;17.974;2024-03-29T22:33:56;13.20;99.90
19385;DHT22;9828;54.122;17.974;2024-03-29T22:39:16;13.10;99.90
19385;DHT22;9828;54.122;17.974;2024-03-29T22:44:36;13.00;99.90
19385;DHT22;9828;54.122;17.974;2024-03-29T22:49:56;12.90;99.90
19385;DHT22;9828;54.122;17.974;2024-03-29T22:55:17;12.80;99.90
19385;DHT22;9828;54.122;17.974;2024-03-29T23:00:37;12.70;99.90
19385;DHT22;9828;54.122;17.974;2024-03-29T23:05:58;12.60;99.90
19385;DHT22;9828;54.122;17.974;2024-03-29T23:11:18;12.60;99.90
19385;DHT22;9828;54.122;17.974;2024-03-29T23:16:39;12.50;99.90
19385;DHT22;9828;54.122;17.974;2024-03-29T23:21:59;12.50;99.90
19385;DHT22;9828;54.122;17.974;2024-03-29T23:27:20;12.40;99.90
19385;DHT22;9828;54.122;17.974;2024-03-29T23:32:40;12.30;99.90
19385;DHT22;9828;54.122;17.974;2024-03-29T23:38:02;12.40;99.90
19385;DHT22;9828;54.122;17.974;2024-03-29T23:43:28;12.30;99.90
19385;DHT22;9828;54.122;17.974;2024-03-29T23:48:48;12.30;99.90
19385;DHT22;9828;54.122;17.974;2024-03-29T23:54:08;12.20;99.90
19385;DHT22;9828;54.122;17.974;2024-03-29T23:59:29;12.20;99.90
